Terminal Aerodrome Forecast
Issued by NWS

Home | Current Version | Previous Version | Text Only | Print | Product List | Glossary On
Versions: 1 2 3 4 5 6 7 8 9 10 11 12 13 14 15 16 17 18 19 20 21 22 23 24 25 26 27 28 29
000
FTUS45 KBOI 242348
TAFJER
TAF
KJER 242348Z 2500/2524 04015KT P6SM OVC050
     FM250300 29015G25KT 1SM -SN BR OVC020
     FM250700 27025G35KT 5SM -SN OVC030
     FM251400 25025G35KT P6SM -SHSN OVC025
     FM251900 25020G30KT P6SM BKN050=

USA.gov is the U.S. government's official web portal to all federal, state and local government web resources and services.